Time;durP1;ratioP1;P1;durP2;ratioP2;P2;SDS_P1;SDS_P2;PMS_P1;PMS_P2;Temp;Humidity;BMP_temperature;BMP_pressure;BME280_temperature;BME280_humidity;BME280_pressure;Samples;Min_cycle;Max_cycle;Signal;HPM_P1;HPM_P2
2022/01/05 00:01:09;;;;;;;5.97;0.98;;;;;;;;;;5094554;28;20124;-87
2022/01/05 00:03:36;;;;;;;6.40;1.10;;;;;;;;;;5094372;28;20048;-87
2022/01/05 00:06:02;;;;;;;9.43;1.27;;;;;;;;;;5094153;28;20051;-87
2022/01/05 00:08:28;;;;;;;7.93;1.20;;;;;;;;;;5094435;28;20040;-86
2022/01/05 00:10:54;;;;;;;11.77;1.25;;;;;;;;;;5095495;28;20040;-86
2022/01/05 00:13:20;;;;;;;7.57;1.35;;;;;;;;;;5077617;28;20127;-86
2022/01/05 00:15:46;;;;;;;7.53;1.15;;;;;;;;;;5077118;28;20505;-86
2022/01/05 00:18:12;;;;;;;7.60;1.25;;;;;;;;;;5095584;28;20042;-86
2022/01/05 00:20:38;;;;;;;6.25;1.00;;;;;;;;;;5095221;28;20111;-87
2022/01/05 00:23:04;;;;;;;10.88;1.83;;;;;;;;;;5095554;28;20040;-88
2022/01/05 00:25:30;;;;;;;9.23;1.10;;;;;;;;;;5094914;28;20056;-87
2022/01/05 00:27:56;;;;;;;6.07;1.00;;;;;;;;;;5094103;28;20116;-86
2022/01/05 00:30:22;;;;;;;7.30;1.90;;;;;;;;;;5095186;28;20395;-87
2022/01/05 00:32:48;;;;;;;12.07;1.63;;;;;;;;;;5094090;28;20040;-87
2022/01/05 00:35:14;;;;;;;7.47;1.38;;;;;;;;;;5076843;28;20073;-86
2022/01/05 00:37:40;;;;;;;6.53;1.20;;;;;;;;;;5095104;28;20040;-88
2022/01/05 00:40:06;;;;;;;12.05;1.67;;;;;;;;;;5094973;28;20048;-87
2022/01/05 00:42:32;;;;;;;7.40;1.50;;;;;;;;;;5093928;28;20048;-87
2022/01/05 00:44:58;;;;;;;5.75;1.50;;;;;;;;;;5093534;28;20044;-88
2022/01/05 00:47:24;;;;;;;9.23;1.02;;;;;;;;;;5093718;28;20108;-88
2022/01/05 00:49:50;;;;;;;9.40;1.70;;;;;;;;;;5093678;28;20448;-87
2022/01/05 00:52:17;;;;;;;8.43;1.17;;;;;;;;;;5095051;28;20078;-89
2022/01/05 00:54:43;;;;;;;10.73;1.55;;;;;;;;;;5093184;28;20553;-88
2022/01/05 00:57:09;;;;;;;11.48;1.35;;;;;;;;;;5095007;28;20461;-88
2022/01/05 00:59:35;;;;;;;8.43;1.50;;;;;;;;;;5093134;28;20079;-87
2022/01/05 01:02:01;;;;;;;17.65;1.90;;;;;;;;;;5094869;28;20039;-88
2022/01/05 01:04:27;;;;;;;11.77;1.23;;;;;;;;;;5094666;28;20039;-87
2022/01/05 01:06:53;;;;;;;15.13;1.90;;;;;;;;;;5093152;28;20096;-88
2022/01/05 01:09:19;;;;;;;8.52;1.52;;;;;;;;;;5094737;28;20128;-87
2022/01/05 01:11:45;;;;;;;10.40;1.80;;;;;;;;;;5094398;28;20055;-87
2022/01/05 01:14:11;;;;;;;12.45;1.75;;;;;;;;;;5093050;28;20040;-87
2022/01/05 01:16:37;;;;;;;10.90;2.03;;;;;;;;;;5094390;28;20040;-88
2022/01/05 01:19:03;;;;;;;11.00;1.98;;;;;;;;;;5093297;28;20090;-88
2022/01/05 01:21:29;;;;;;;10.63;1.63;;;;;;;;;;5094306;28;20044;-87
2022/01/05 01:23:55;;;;;;;10.48;1.55;;;;;;;;;;5093153;28;20068;-87
2022/01/05 01:26:25;;;;;;;10.90;1.50;;;;;;;;;;5093859;28;20220;-87
2022/01/05 01:28:51;;;;;;;11.68;1.70;;;;;;;;;;5094157;28;20051;-88
2022/01/05 01:31:17;;;;;;;11.43;1.85;;;;;;;;;;5093770;28;20122;-88
2022/01/05 01:33:43;;;;;;;12.77;1.85;;;;;;;;;;5094205;28;20032;-88
2022/01/05 01:36:09;;;;;;;8.65;1.50;;;;;;;;;;5092604;28;20035;-87
2022/01/05 01:38:35;;;;;;;13.20;1.85;;;;;;;;;;5092863;28;20135;-88
2022/01/05 01:41:01;;;;;;;12.25;1.58;;;;;;;;;;5075626;28;20040;-87
2022/01/05 01:43:27;;;;;;;7.32;1.30;;;;;;;;;;5093951;28;20063;-88
2022/01/05 01:45:53;;;;;;;11.60;1.88;;;;;;;;;;5093550;28;20495;-88
2022/01/05 01:48:19;;;;;;;9.80;1.58;;;;;;;;;;5092426;28;20495;-88
2022/01/05 01:50:45;;;;;;;13.57;1.33;;;;;;;;;;5092223;28;20047;-88
2022/01/05 01:53:12;;;;;;;11.25;1.42;;;;;;;;;;5093741;28;20032;-88
2022/01/05 01:55:38;;;;;;;14.20;1.73;;;;;;;;;;5093533;28;20043;-86
2022/01/05 01:58:05;;;;;;;9.13;1.50;;;;;;;;;;5075463;28;20040;-88
2022/01/05 02:00:31;;;;;;;7.90;1.77;;;;;;;;;;5092041;28;20044;-88
2022/01/05 02:02:57;;;;;;;8.98;1.58;;;;;;;;;;5092433;28;20043;-88
2022/01/05 02:05:23;;;;;;;8.32;1.83;;;;;;;;;;5092325;28;20044;-87
2022/01/05 02:07:49;;;;;;;9.07;1.83;;;;;;;;;;5093637;28;20043;-88
2022/01/05 02:10:16;;;;;;;10.63;1.58;;;;;;;;;;5093427;28;20052;-87
2022/01/05 02:12:43;;;;;;;8.93;1.42;;;;;;;;;;5092055;28;20071;-88
2022/01/05 02:15:10;;;;;;;14.02;2.17;;;;;;;;;;5092348;28;20040;-87
2022/01/05 02:17:51;;;;;;;13.60;2.00;;;;;;;;;;5091910;28;20096;-88
2022/01/05 02:20:18;;;;;;;10.65;1.58;;;;;;;;;;5091507;28;20040;-88
2022/01/05 02:22:45;;;;;;;11.77;1.58;;;;;;;;;;5091830;28;20055;-87
2022/01/05 02:25:11;;;;;;;12.27;1.40;;;;;;;;;;5091691;28;20492;-88
2022/01/05 02:27:41;;;;;;;11.00;1.20;;;;;;;;;;5091854;28;20056;-88
2022/01/05 02:30:08;;;;;;;7.75;1.67;;;;;;;;;;5093037;28;20052;-86
2022/01/05 02:32:34;;;;;;;11.60;1.95;;;;;;;;;;5093066;28;20066;-87
2022/01/05 02:35:00;;;;;;;13.05;2.03;;;;;;;;;;5093306;28;20503;-87
2022/01/05 02:37:25;;;;;;;7.45;1.70;;;;;;;;;;5093057;28;20391;-87
2022/01/05 02:39:51;;;;;;;10.10;1.75;;;;;;;;;;5091730;28;20101;-88
2022/01/05 02:42:28;;;;;;;11.70;1.83;;;;;;;;;;5091765;28;20044;-88
2022/01/05 02:44:55;;;;;;;14.90;2.28;;;;;;;;;;5091862;28;20518;-86
2022/01/05 02:47:21;;;;;;;9.13;1.67;;;;;;;;;;5091603;28;20040;-87
2022/01/05 02:49:47;;;;;;;10.60;1.92;;;;;;;;;;5091656;28;20380;-86
2022/01/05 02:52:13;;;;;;;11.73;2.00;;;;;;;;;;5091484;28;20124;-88
2022/01/05 02:54:39;;;;;;;13.10;2.30;;;;;;;;;;5093251;28;20119;-87
2022/01/05 02:57:05;;;;;;;12.05;1.75;;;;;;;;;;5091350;28;20074;-87
2022/01/05 02:59:31;;;;;;;11.95;2.40;;;;;;;;;;5091622;28;20571;-86
2022/01/05 03:01:57;;;;;;;9.85;1.83;;;;;;;;;;5091601;28;20083;-88
2022/01/05 03:04:23;;;;;;;13.13;2.28;;;;;;;;;;5092830;28;20510;-88
2022/01/05 03:06:49;;;;;;;11.77;1.63;;;;;;;;;;5091286;28;20055;-86
2022/01/05 03:09:15;;;;;;;11.57;2.47;;;;;;;;;;5092940;28;20044;-88
2022/01/05 03:11:41;;;;;;;13.10;1.70;;;;;;;;;;5091160;28;20116;-87
2022/01/05 03:14:07;;;;;;;14.40;2.22;;;;;;;;;;5092811;28;20036;-88
2022/01/05 03:16:33;;;;;;;14.93;2.08;;;;;;;;;;5091197;28;20395;-87
2022/01/05 03:18:59;;;;;;;15.95;2.80;;;;;;;;;;5092791;28;20040;-88
2022/01/05 03:21:25;;;;;;;11.02;1.92;;;;;;;;;;5091185;28;20416;-87
2022/01/05 03:23:51;;;;;;;15.73;2.20;;;;;;;;;;5092607;28;20058;-87
2022/01/05 03:26:17;;;;;;;15.93;2.40;;;;;;;;;;5090998;28;20055;-87
2022/01/05 03:28:43;;;;;;;14.23;1.95;;;;;;;;;;5091305;28;20048;-87
2022/01/05 03:31:09;;;;;;;9.80;1.75;;;;;;;;;;5094998;28;20513;-88
2022/01/05 03:33:35;;;;;;;14.73;2.50;;;;;;;;;;5078274;28;20127;-86
2022/01/05 03:36:01;;;;;;;11.38;1.95;;;;;;;;;;5094918;28;20044;-88
2022/01/05 03:38:28;;;;;;;14.73;2.38;;;;;;;;;;5094928;28;20115;-88
2022/01/05 03:40:54;;;;;;;13.63;2.08;;;;;;;;;;5095262;28;20104;-87
2022/01/05 03:43:20;;;;;;;15.18;2.13;;;;;;;;;;5095911;28;20036;-87
2022/01/05 03:45:47;;;;;;;10.43;1.95;;;;;;;;;;5095214;28;20490;-88
2022/01/05 03:48:14;;;;;;;12.18;2.08;;;;;;;;;;5094610;28;20095;-87
2022/01/05 03:50:40;;;;;;;12.13;2.00;;;;;;;;;;5094921;28;20514;-87
2022/01/05 03:53:07;;;;;;;15.23;1.75;;;;;;;;;;5094394;28;20040;-87
2022/01/05 03:55:34;;;;;;;17.88;2.20;;;;;;;;;;5094665;28;20039;-87
2022/01/05 03:58:00;;;;;;;13.55;2.00;;;;;;;;;;5095811;28;20130;-87
2022/01/05 04:00:27;;;;;;;13.40;2.15;;;;;;;;;;5094564;28;20055;-86
2022/01/05 04:02:53;;;;;;;16.60;2.55;;;;;;;;;;5094448;28;20043;-88
2022/01/05 04:05:19;;;;;;;15.10;1.92;;;;;;;;;;5094762;28;20386;-87
2022/01/05 04:07:45;;;;;;;15.63;2.50;;;;;;;;;;5094192;28;20544;-88
2022/01/05 04:10:11;;;;;;;15.80;3.33;;;;;;;;;;5096158;28;20040;-87
2022/01/05 04:12:37;;;;;;;16.02;2.63;;;;;;;;;;5095410;28;20032;-88
2022/01/05 04:15:04;;;;;;;11.32;2.38;;;;;;;;;;5094285;28;20040;-87
2022/01/05 04:17:30;;;;;;;15.68;2.05;;;;;;;;;;5094279;28;20055;-87
2022/01/05 04:19:56;;;;;;;11.43;1.48;;;;;;;;;;5095776;28;20032;-87
2022/01/05 04:22:22;;;;;;;8.25;1.70;;;;;;;;;;5095140;28;20049;-87
2022/01/05 04:24:48;;;;;;;15.02;2.58;;;;;;;;;;5094006;28;20348;-87
2022/01/05 04:27:15;;;;;;;13.48;2.35;;;;;;;;;;5093976;28;20044;-88
2022/01/05 04:29:41;;;;;;;15.93;2.58;;;;;;;;;;5093969;28;20498;-86
2022/01/05 04:32:07;;;;;;;12.68;1.83;;;;;;;;;;5093753;28;20040;-86
2022/01/05 04:34:33;;;;;;;11.27;2.17;;;;;;;;;;5093877;28;20043;-87
2022/01/05 04:36:59;;;;;;;12.70;1.60;;;;;;;;;;5093943;28;20040;-86
2022/01/05 04:39:25;;;;;;;8.18;1.52;;;;;;;;;;5093943;28;20122;-86
2022/01/05 04:41:51;;;;;;;13.02;1.60;;;;;;;;;;5093261;28;20372;-88
2022/01/05 04:44:17;;;;;;;11.82;1.60;;;;;;;;;;5094022;28;20048;-87
2022/01/05 04:46:43;;;;;;;14.68;1.85;;;;;;;;;;5093546;28;20123;-87
2022/01/05 04:49:09;;;;;;;9.30;1.35;;;;;;;;;;5095011;28;20119;-87
2022/01/05 04:51:35;;;;;;;7.72;1.20;;;;;;;;;;5093522;28;20052;-87
2022/01/05 04:54:01;;;;;;;14.20;2.05;;;;;;;;;;5093391;28;20085;-87
2022/01/05 04:56:27;;;;;;;11.80;1.75;;;;;;;;;;5093539;28;20048;-87
2022/01/05 04:58:56;;;;;;;9.27;1.63;;;;;;;;;;5094788;28;20040;-87
2022/01/05 05:01:22;;;;;;;11.43;1.92;;;;;;;;;;5094562;28;20487;-87
2022/01/05 05:03:48;;;;;;;8.18;1.60;;;;;;;;;;5093315;28;20127;-87
2022/01/05 05:06:14;;;;;;;13.05;1.77;;;;;;;;;;5076519;28;20453;-87
2022/01/05 05:08:40;;;;;;;11.18;1.60;;;;;;;;;;5076207;28;20040;-86
2022/01/05 05:11:06;;;;;;;7.45;1.25;;;;;;;;;;5093272;28;20048;-88
2022/01/05 05:13:32;;;;;;;9.20;1.60;;;;;;;;;;5093167;28;20044;-88
2022/01/05 05:15:58;;;;;;;11.75;1.88;;;;;;;;;;5093165;28;20530;-86
2022/01/05 05:18:24;;;;;;;10.43;1.60;;;;;;;;;;5092834;28;20411;-86
2022/01/05 05:20:50;;;;;;;11.65;1.88;;;;;;;;;;5094313;28;20048;-87
2022/01/05 05:23:17;;;;;;;12.90;1.70;;;;;;;;;;5094160;28;20047;-87
2022/01/05 05:25:43;;;;;;;8.40;1.55;;;;;;;;;;5092996;28;20066;-87
2022/01/05 05:28:09;;;;;;;11.60;2.72;;;;;;;;;;5095946;28;20048;-87
2022/01/05 05:30:36;;;;;;;10.45;1.85;;;;;;;;;;5095071;28;20044;-87
2022/01/05 05:33:02;;;;;;;13.20;1.45;;;;;;;;;;5093070;28;20028;-87
2022/01/05 05:35:28;;;;;;;12.90;2.03;;;;;;;;;;5092820;28;20131;-87
2022/01/05 05:37:55;;;;;;;12.77;1.88;;;;;;;;;;5092766;28;20040;-87
2022/01/05 05:40:21;;;;;;;13.77;1.80;;;;;;;;;;5092686;28;20055;-87
2022/01/05 05:42:47;;;;;;;11.05;1.80;;;;;;;;;;5093717;28;20094;-87
2022/01/05 05:45:13;;;;;;;16.23;2.13;;;;;;;;;;5092538;28;20097;-87
2022/01/05 05:47:39;;;;;;;14.80;2.10;;;;;;;;;;5075475;28;20396;-88
2022/01/05 05:50:06;;;;;;;13.02;2.78;;;;;;;;;;5092549;28;20044;-87
2022/01/05 05:52:32;;;;;;;14.70;1.98;;;;;;;;;;5093722;28;20138;-86
2022/01/05 05:54:58;;;;;;;16.02;2.70;;;;;;;;;;5092875;28;20092;-87
2022/01/05 05:57:24;;;;;;;14.10;2.35;;;;;;;;;;5092410;28;20044;-88
2022/01/05 05:59:49;;;;;;;11.40;2.22;;;;;;;;;;5075372;28;20036;-86
2022/01/05 06:02:15;;;;;;;17.30;2.92;;;;;;;;;;5092420;28;20052;-87
2022/01/05 06:04:41;;;;;;;17.67;2.60;;;;;;;;;;5092267;28;20047;-86
2022/01/05 06:07:07;;;;;;;14.07;2.30;;;;;;;;;;5092199;28;20043;-86
2022/01/05 06:09:33;;;;;;;22.13;2.60;;;;;;;;;;5075129;28;20040;-86
2022/01/05 06:11:59;;;;;;;17.15;2.20;;;;;;;;;;5092085;28;20047;-86
2022/01/05 06:14:25;;;;;;;19.05;2.92;;;;;;;;;;5092056;28;20036;-86
2022/01/05 06:16:51;;;;;;;25.88;2.92;;;;;;;;;;5093342;28;20043;-86
2022/01/05 06:19:17;;;;;;;18.38;2.30;;;;;;;;;;5093179;28;20036;-85
2022/01/05 06:21:44;;;;;;;16.27;2.55;;;;;;;;;;5093464;28;20036;-85
2022/01/05 06:24:10;;;;;;;12.85;2.40;;;;;;;;;;5092788;28;20040;-85
2022/01/05 06:26:36;;;;;;;12.73;2.38;;;;;;;;;;5075002;28;20085;-85
2022/01/05 06:29:02;;;;;;;13.20;2.03;;;;;;;;;;5092938;28;20036;-85
2022/01/05 06:31:28;;;;;;;8.77;1.55;;;;;;;;;;5091652;28;20065;-86
2022/01/05 06:33:54;;;;;;;9.57;1.75;;;;;;;;;;5093113;28;20115;-87
2022/01/05 06:36:20;;;;;;;9.15;1.92;;;;;;;;;;5091882;28;20039;-86
2022/01/05 06:38:46;;;;;;;14.95;1.80;;;;;;;;;;5091529;28;20039;-86
2022/01/05 06:41:12;;;;;;;7.35;1.73;;;;;;;;;;5091928;28;20044;-86
2022/01/05 06:43:38;;;;;;;9.93;1.95;;;;;;;;;;5092769;28;20074;-87
2022/01/05 06:46:04;;;;;;;12.45;2.15;;;;;;;;;;5091612;28;20475;-85
2022/01/05 06:48:30;;;;;;;12.73;2.00;;;;;;;;;;5091591;28;20132;-87
2022/01/05 06:50:56;;;;;;;8.57;1.52;;;;;;;;;;5091646;28;20114;-87
2022/01/05 06:53:22;;;;;;;12.70;1.90;;;;;;;;;;5090260;28;20047;-85
2022/01/05 06:55:48;;;;;;;11.38;2.05;;;;;;;;;;5076454;28;20032;-87
2022/01/05 06:58:14;;;;;;;11.85;2.05;;;;;;;;;;5072470;28;20044;-86
2022/01/05 07:00:40;;;;;;;9.13;1.33;;;;;;;;;;5089766;28;20066;-86
2022/01/05 07:03:06;;;;;;;11.35;1.83;;;;;;;;;;5071135;28;20442;-85
2022/01/05 07:05:32;;;;;;;11.35;1.70;;;;;;;;;;5081433;28;20048;-85
2022/01/05 07:07:58;;;;;;;14.23;1.85;;;;;;;;;;5092051;28;20090;-88
2022/01/05 07:10:24;;;;;;;15.05;1.67;;;;;;;;;;5093060;28;20105;-86
2022/01/05 07:12:50;;;;;;;10.55;1.98;;;;;;;;;;5093411;28;20097;-86
2022/01/05 07:15:17;;;;;;;9.75;2.20;;;;;;;;;;5091770;28;20040;-86
2022/01/05 07:17:43;;;;;;;13.60;1.63;;;;;;;;;;5081212;28;20399;-87
2022/01/05 07:20:09;;;;;;;12.40;1.92;;;;;;;;;;5087462;28;20395;-86
2022/01/05 07:22:36;;;;;;;9.00;1.90;;;;;;;;;;5078206;28;20564;-85
2022/01/05 07:25:02;;;;;;;9.52;1.70;;;;;;;;;;5071384;28;20199;-86
2022/01/05 07:27:28;;;;;;;8.05;1.48;;;;;;;;;;5077172;28;20047;-86
2022/01/05 07:29:54;;;;;;;9.80;1.20;;;;;;;;;;5084596;28;20040;-86
2022/01/05 07:32:20;;;;;;;9.95;1.10;;;;;;;;;;5089678;28;20123;-85
2022/01/05 07:34:47;;;;;;;6.53;1.50;;;;;;;;;;5073049;28;20172;-86
2022/01/05 07:37:13;;;;;;;8.38;1.35;;;;;;;;;;5085990;28;20041;-86
2022/01/05 07:39:40;;;;;;;5.65;1.08;;;;;;;;;;5072726;28;20039;-85
2022/01/05 07:42:06;;;;;;;7.97;1.10;;;;;;;;;;5085652;28;20376;-86
2022/01/05 07:44:32;;;;;;;9.43;1.05;;;;;;;;;;5089794;28;20136;-86
2022/01/05 07:46:58;;;;;;;8.07;1.02;;;;;;;;;;5083528;28;20504;-86
2022/01/05 07:49:24;;;;;;;10.52;1.20;;;;;;;;;;5082314;28;20040;-87
2022/01/05 07:51:51;;;;;;;12.00;1.33;;;;;;;;;;5074299;28;20047;-87
2022/01/05 07:54:17;;;;;;;7.68;1.05;;;;;;;;;;5077990;28;20047;-86
2022/01/05 07:56:43;;;;;;;9.30;1.42;;;;;;;;;;5072361;28;20040;-87
2022/01/05 07:59:08;;;;;;;8.57;1.05;;;;;;;;;;5090233;28;20043;-86
2022/01/05 08:01:35;;;;;;;8.55;0.77;;;;;;;;;;5087359;28;20044;-87
2022/01/05 08:04:01;;;;;;;9.13;1.00;;;;;;;;;;5082875;28;20045;-86
2022/01/05 08:06:27;;;;;;;8.35;1.30;;;;;;;;;;5077454;28;20090;-88
2022/01/05 08:08:52;;;;;;;8.43;1.02;;;;;;;;;;5074618;28;20101;-91
2022/01/05 08:11:19;;;;;;;9.98;1.40;;;;;;;;;;5090450;28;20120;-85
2022/01/05 08:13:45;;;;;;;8.02;1.70;;;;;;;;;;5095516;28;20040;-86
2022/01/05 08:16:11;;;;;;;14.50;1.77;;;;;;;;;;5076966;28;20119;-85
2022/01/05 08:18:37;;;;;;;9.40;1.58;;;;;;;;;;5095043;28;20124;-85
2022/01/05 08:21:03;;;;;;;17.67;2.03;;;;;;;;;;5077375;28;20071;-85
2022/01/05 08:23:29;;;;;;;9.27;1.52;;;;;;;;;;5094081;28;20101;-85
2022/01/05 08:25:55;;;;;;;6.88;1.17;;;;;;;;;;5093673;28;20060;-85
2022/01/05 08:28:21;;;;;;;8.93;1.20;;;;;;;;;;5094434;28;20051;-84
2022/01/05 08:30:48;;;;;;;7.88;1.38;;;;;;;;;;5093920;28;20483;-85
2022/01/05 08:33:14;;;;;;;9.15;1.38;;;;;;;;;;5093930;28;20120;-89
2022/01/05 08:35:41;;;;;;;9.52;1.63;;;;;;;;;;5077141;28;20101;-86
2022/01/05 08:38:07;;;;;;;10.18;0.98;;;;;;;;;;5093960;28;20040;-85
2022/01/05 08:40:34;;;;;;;7.38;1.00;;;;;;;;;;5095130;28;20072;-84
2022/01/05 08:43:00;;;;;;;5.72;0.98;;;;;;;;;;5095259;28;20042;-84
2022/01/05 08:45:26;;;;;;;10.23;2.35;;;;;;;;;;5093590;28;20123;-85
2022/01/05 08:47:53;;;;;;;8.55;1.23;;;;;;;;;;5095258;28;20090;-85
2022/01/05 08:50:21;;;;;;;12.05;1.20;;;;;;;;;;5093338;28;20144;-84
2022/01/05 08:52:47;;;;;;;8.27;1.30;;;;;;;;;;5093915;28;20072;-84
2022/01/05 08:55:14;;;;;;;6.10;1.10;;;;;;;;;;5094701;28;20086;-84
2022/01/05 08:57:40;;;;;;;11.10;1.60;;;;;;;;;;5093524;28;20062;-84
2022/01/05 09:00:07;;;;;;;8.98;1.27;;;;;;;;;;5094655;28;20101;-85
2022/01/05 09:02:33;;;;;;;11.07;1.75;;;;;;;;;;5093529;28;20394;-83
2022/01/05 09:04:59;;;;;;;11.13;1.70;;;;;;;;;;5094560;28;20040;-84
2022/01/05 09:07:25;;;;;;;11.57;2.38;;;;;;;;;;5093645;28;20040;-84
2022/01/05 09:09:51;;;;;;;17.25;2.25;;;;;;;;;;5093184;28;20472;-84
2022/01/05 09:12:17;;;;;;;14.07;1.95;;;;;;;;;;5094679;28;20044;-84
2022/01/05 09:14:43;;;;;;;12.55;1.98;;;;;;;;;;5076234;28;20491;-84
2022/01/05 09:17:09;;;;;;;18.98;2.67;;;;;;;;;;5094655;28;20060;-83
2022/01/05 09:19:35;;;;;;;12.40;1.67;;;;;;;;;;5092872;28;20125;-85
2022/01/05 09:22:02;;;;;;;14.23;2.30;;;;;;;;;;5093233;28;20040;-84
2022/01/05 09:24:28;;;;;;;16.42;1.92;;;;;;;;;;5094211;28;20044;-93
2022/01/05 09:26:57;;;;;;;18.42;1.95;;;;;;;;;;5093435;28;20052;-85
2022/01/05 09:29:23;;;;;;;13.90;2.05;;;;;;;;;;5094214;28;20040;-85
2022/01/05 09:31:50;;;;;;;11.43;3.05;;;;;;;;;;5094024;28;20468;-85
2022/01/05 09:34:16;;;;;;;14.65;2.15;;;;;;;;;;5093004;28;20483;-86
2022/01/05 09:36:48;;;;;;;16.95;2.58;;;;;;;;;;5092777;28;20418;-86
2022/01/05 09:42:00;;;;;;;11.75;1.60;;;;;;;;;;5093924;28;20039;-85
2022/01/05 09:44:38;;;;;;;11.18;1.33;;;;;;;;;;5092619;28;20051;-86
2022/01/05 09:47:23;;;;;;;9.13;1.38;;;;;;;;;;5092538;28;20039;-86
2022/01/05 09:49:54;;;;;;;14.18;2.47;;;;;;;;;;5093771;28;20044;-85
2022/01/05 09:52:23;;;;;;;12.35;1.70;;;;;;;;;;5092350;28;20043;-86
2022/01/05 09:54:49;;;;;;;13.75;2.50;;;;;;;;;;5075253;28;20040;-86
2022/01/05 09:57:16;;;;;;;19.35;2.72;;;;;;;;;;5092345;28;20055;-86
2022/01/05 09:59:42;;;;;;;14.00;1.45;;;;;;;;;;5093643;28;20111;-86
2022/01/05 10:02:08;;;;;;;13.23;2.22;;;;;;;;;;5093267;28;20039;-86
2022/01/05 10:04:37;;;;;;;11.93;1.90;;;;;;;;;;5093544;28;20097;-86
2022/01/05 10:07:04;;;;;;;15.60;1.98;;;;;;;;;;5092175;28;20043;-86
2022/01/05 10:09:30;;;;;;;17.83;2.40;;;;;;;;;;5092394;28;20111;-85
2022/01/05 10:11:56;;;;;;;15.60;2.20;;;;;;;;;;5091935;28;20202;-87
2022/01/05 10:14:22;;;;;;;14.88;2.25;;;;;;;;;;5092359;28;20487;-86
2022/01/05 10:17:02;;;;;;;12.55;1.85;;;;;;;;;;5091752;28;20220;-86
2022/01/05 10:19:28;;;;;;;12.40;2.45;;;;;;;;;;5093398;28;20086;-86
2022/01/05 10:21:55;;;;;;;12.95;1.58;;;;;;;;;;5091846;28;20072;-86
2022/01/05 10:24:40;;;;;;;12.27;2.25;;;;;;;;;;5091629;28;20052;-86
2022/01/05 10:27:06;;;;;;;15.30;2.35;;;;;;;;;;5093194;28;20040;-86
2022/01/05 10:29:32;;;;;;;16.52;2.38;;;;;;;;;;5091808;28;20040;-87
2022/01/05 10:31:59;;;;;;;20.20;2.05;;;;;;;;;;5091476;28;20048;-86
2022/01/05 10:34:26;;;;;;;18.00;2.28;;;;;;;;;;5091654;28;20043;-86
2022/01/05 10:36:52;;;;;;;15.15;2.25;;;;;;;;;;5091504;28;20050;-86
2022/01/05 10:39:29;;;;;;;12.98;2.05;;;;;;;;;;5091671;28;20355;-86
2022/01/05 10:41:55;;;;;;;14.32;2.50;;;;;;;;;;5091743;28;20111;-85
2022/01/05 10:44:24;;;;;;;12.52;2.00;;;;;;;;;;5091839;28;20040;-86
2022/01/05 10:46:57;;;;;;;10.95;2.47;;;;;;;;;;5091339;28;20499;-86
2022/01/05 10:49:25;;;;;;;15.02;1.90;;;;;;;;;;5091595;28;20048;-86
2022/01/05 10:51:51;;;;;;;12.57;1.75;;;;;;;;;;5091290;28;20043;-87
2022/01/05 10:54:19;;;;;;;13.00;2.10;;;;;;;;;;5091478;28;20067;-87
2022/01/05 10:56:46;;;;;;;13.52;1.92;;;;;;;;;;5092487;28;20545;-86
2022/01/05 10:59:16;;;;;;;17.95;2.22;;;;;;;;;;5091870;28;20040;-87
2022/01/05 11:01:43;;;;;;;16.73;2.55;;;;;;;;;;5091191;28;20047;-86
2022/01/05 11:04:16;;;;;;;21.98;3.38;;;;;;;;;;5091798;28;20123;-87
2022/01/05 11:07:02;;;;;;;16.33;3.05;;;;;;;;;;5092744;28;20437;-87
2022/01/05 11:09:29;;;;;;;18.77;2.92;;;;;;;;;;5091407;28;20055;-86
2022/01/05 11:11:55;;;;;;;17.25;2.78;;;;;;;;;;5091139;28;20040;-87
2022/01/05 11:14:30;;;;;;;18.95;3.10;;;;;;;;;;5091237;28;20044;-86
2022/01/05 11:16:57;;;;;;;14.80;2.30;;;;;;;;;;5091071;28;20051;-86
2022/01/05 11:19:24;;;;;;;15.60;2.67;;;;;;;;;;5091681;28;20131;-87
2022/01/05 11:22:01;;;;;;;20.63;2.92;;;;;;;;;;5091044;28;20480;-87
2022/01/05 11:24:27;;;;;;;16.85;3.35;;;;;;;;;;5091060;28;20380;-88
2022/01/05 11:26:54;;;;;;;17.13;2.72;;;;;;;;;;5091238;28;20044;-87
2022/01/05 11:29:20;;;;;;;22.58;3.53;;;;;;;;;;5091282;28;20127;-87
2022/01/05 11:31:46;;;;;;;14.52;3.10;;;;;;;;;;5090980;28;20396;-87
2022/01/05 11:34:12;;;;;;;19.63;3.53;;;;;;;;;;5092647;28;20028;-87
2022/01/05 11:36:39;;;;;;;20.35;2.97;;;;;;;;;;5090933;28;20043;-87
2022/01/05 11:39:05;;;;;;;18.48;3.00;;;;;;;;;;5091362;28;20071;-88
2022/01/05 11:41:32;;;;;;;19.75;3.17;;;;;;;;;;5092847;28;20052;-86
2022/01/05 11:43:59;;;;;;;17.65;3.75;;;;;;;;;;5091054;28;20211;-88
2022/01/05 11:46:29;;;;;;;23.95;3.33;;;;;;;;;;5092251;28;20097;-87
2022/01/05 11:49:09;;;;;;;14.75;3.63;;;;;;;;;;5092939;28;20132;-87
2022/01/05 11:51:45;;;;;;;20.27;3.28;;;;;;;;;;5093605;28;20434;-88
2022/01/05 11:54:16;;;;;;;19.15;3.20;;;;;;;;;;5077685;28;20040;-88
2022/01/05 11:56:43;;;;;;;19.02;3.28;;;;;;;;;;5096002;28;20065;-85
2022/01/05 11:59:26;;;;;;;14.82;2.67;;;;;;;;;;5094725;28;20045;-87
2022/01/05 12:02:09;;;;;;;18.55;3.30;;;;;;;;;;5095901;28;20119;-86
2022/01/05 12:04:59;;;;;;;19.25;3.35;;;;;;;;;;5094489;28;20056;-86
2022/01/05 12:07:47;;;;;;;21.05;3.13;;;;;;;;;;5094601;28;20043;-87
2022/01/05 12:10:13;;;;;;;20.45;3.03;;;;;;;;;;5094391;28;20055;-87
2022/01/05 12:12:53;;;;;;;20.92;3.28;;;;;;;;;;5095394;28;20040;-87
2022/01/05 12:15:40;;;;;;;15.32;2.75;;;;;;;;;;5095605;28;20036;-86
2022/01/05 12:18:06;;;;;;;19.00;3.03;;;;;;;;;;5094144;28;20040;-86
2022/01/05 12:20:36;;;;;;;18.33;3.03;;;;;;;;;;5094181;28;20046;-86
2022/01/05 12:23:26;;;;;;;17.30;2.72;;;;;;;;;;5093958;28;20051;-86
2022/01/05 12:26:05;;;;;;;13.18;2.83;;;;;;;;;;5094716;28;20048;-87
2022/01/05 12:28:36;;;;;;;16.88;2.70;;;;;;;;;;5077059;28;20051;-86
2022/01/05 12:31:03;;;;;;;18.10;3.38;;;;;;;;;;5095451;28;20051;-87
2022/01/05 12:33:49;;;;;;;16.55;2.65;;;;;;;;;;5095305;28;20036;-87
2022/01/05 12:36:32;;;;;;;12.75;2.13;;;;;;;;;;5094044;28;20418;-87
2022/01/05 12:38:59;;;;;;;12.98;2.17;;;;;;;;;;5093984;28;20115;-86
2022/01/05 12:41:25;;;;;;;12.68;1.92;;;;;;;;;;5093766;28;20076;-86
2022/01/05 12:43:52;;;;;;;13.15;2.30;;;;;;;;;;5095027;28;20039;-87
2022/01/05 12:46:36;;;;;;;11.85;2.05;;;;;;;;;;5095009;28;20454;-86
2022/01/05 12:49:04;;;;;;;10.88;1.98;;;;;;;;;;5077203;28;20052;-87
2022/01/05 12:51:39;;;;;;;11.88;1.83;;;;;;;;;;5094916;28;20438;-85
2022/01/05 12:54:11;;;;;;;14.82;1.90;;;;;;;;;;5093777;28;20097;-87
2022/01/05 12:56:39;;;;;;;13.50;2.70;;;;;;;;;;5093367;28;20112;-87
2022/01/05 12:59:07;;;;;;;13.75;2.45;;;;;;;;;;5093527;28;20036;-86
2022/01/05 13:01:33;;;;;;;14.70;2.17;;;;;;;;;;5094949;28;20122;-86
2022/01/05 13:04:00;;;;;;;14.20;2.53;;;;;;;;;;5092682;28;20418;-86
2022/01/05 13:06:27;;;;;;;14.68;2.60;;;;;;;;;;5094629;28;20399;-87
2022/01/05 13:09:06;;;;;;;15.55;2.70;;;;;;;;;;5094647;28;20043;-87
2022/01/05 13:11:54;;;;;;;20.67;2.35;;;;;;;;;;5076281;28;20436;-86
2022/01/05 13:14:34;;;;;;;16.90;2.55;;;;;;;;;;5076516;28;20048;-86
2022/01/05 13:17:04;;;;;;;16.50;2.80;;;;;;;;;;5094353;28;20107;-86
2022/01/05 13:19:46;;;;;;;13.05;2.47;;;;;;;;;;5094331;28;20040;-86
2022/01/05 13:22:19;;;;;;;15.25;2.33;;;;;;;;;;5093137;28;20054;-86
2022/01/05 13:24:45;;;;;;;16.27;2.58;;;;;;;;;;5092696;28;20105;-88
2022/01/05 13:27:11;;;;;;;10.90;2.15;;;;;;;;;;5093044;28;20059;-87
2022/01/05 13:29:37;;;;;;;15.50;2.42;;;;;;;;;;5094313;28;20123;-86
2022/01/05 13:32:08;;;;;;;12.55;2.60;;;;;;;;;;5092634;28;20044;-87
2022/01/05 13:34:36;;;;;;;13.93;2.67;;;;;;;;;;5092954;28;20097;-87
2022/01/05 13:37:03;;;;;;;20.92;3.75;;;;;;;;;;5092887;28;20484;-85
2022/01/05 13:39:39;;;;;;;12.35;3.10;;;;;;;;;;5094209;28;20447;-86
2022/01/05 13:42:05;;;;;;;22.08;3.47;;;;;;;;;;5075576;28;20044;-86
2022/01/05 13:44:31;;;;;;;31.23;3.60;;;;;;;;;;5092701;28;20075;-86
2022/01/05 13:46:57;;;;;;;18.38;3.00;;;;;;;;;;5092739;28;20395;-87
2022/01/05 13:49:24;;;;;;;26.52;4.88;;;;;;;;;;5075395;28;20036;-86
2022/01/05 13:52:10;;;;;;;22.90;3.17;;;;;;;;;;5092511;28;20157;-86
2022/01/05 13:54:37;;;;;;;18.33;2.78;;;;;;;;;;5092422;28;20065;-85
2022/01/05 13:57:03;;;;;;;15.65;2.42;;;;;;;;;;5093876;28;20404;-86
2022/01/05 13:59:43;;;;;;;14.18;2.47;;;;;;;;;;5092132;28;20449;-85
2022/01/05 14:02:09;;;;;;;16.20;3.45;;;;;;;;;;5092574;28;20502;-87
2022/01/05 14:04:49;;;;;;;13.85;2.83;;;;;;;;;;5093269;28;20045;-86
2022/01/05 14:07:19;;;;;;;14.27;2.28;;;;;;;;;;5092262;28;20067;-87
2022/01/05 14:09:46;;;;;;;13.85;2.80;;;;;;;;;;5092442;28;20408;-86
2022/01/05 14:12:31;;;;;;;11.95;2.15;;;;;;;;;;5092112;28;20044;-86
2022/01/05 14:14:58;;;;;;;13.85;2.35;;;;;;;;;;5092936;28;20117;-87
2022/01/05 14:17:25;;;;;;;14.05;2.45;;;;;;;;;;5091887;28;20420;-86
2022/01/05 14:19:51;;;;;;;13.68;1.90;;;;;;;;;;5093272;28;20036;-87
2022/01/05 14:22:19;;;;;;;15.23;3.05;;;;;;;;;;5092180;28;20097;-86
2022/01/05 14:24:46;;;;;;;15.73;3.53;;;;;;;;;;5092824;28;20561;-86
2022/01/05 14:27:21;;;;;;;21.38;3.47;;;;;;;;;;5091957;28;20563;-87
2022/01/05 14:29:58;;;;;;;15.15;3.17;;;;;;;;;;5091958;28;20433;-87
2022/01/05 14:32:32;;;;;;;17.42;3.33;;;;;;;;;;5091793;28;20040;-86
2022/01/05 14:34:59;;;;;;;10.82;2.42;;;;;;;;;;5091763;28;20052;-86
2022/01/05 14:37:25;;;;;;;14.73;2.72;;;;;;;;;;5093093;28;20059;-86
2022/01/05 14:39:52;;;;;;;20.00;5.15;;;;;;;;;;5091643;28;20391;-85